sensor_id;sensor_type;location;lat;lon;timestamp;P1;durP1;ratioP1;P2;durP2;ratioP2
17614;SDS011;8926;49.720;6.576;2023-04-15T00:01:10;1.30;;;1.20;;
17614;SDS011;8926;49.720;6.576;2023-04-15T00:03:37;1.50;;;1.40;;
17614;SDS011;8926;49.720;6.576;2023-04-15T00:06:02;1.33;;;1.10;;
17614;SDS011;8926;49.720;6.576;2023-04-15T00:08:28;1.50;;;1.40;;
17614;SDS011;8926;49.720;6.576;2023-04-15T00:10:54;1.23;;;1.13;;
17614;SDS011;8926;49.720;6.576;2023-04-15T00:13:19;3.10;;;1.93;;
17614;SDS011;8926;49.720;6.576;2023-04-15T00:15:44;3.37;;;1.80;;
17614;SDS011;8926;49.720;6.576;2023-04-15T00:18:10;2.50;;;2.00;;
17614;SDS011;8926;49.720;6.576;2023-04-15T00:20:35;1.73;;;1.63;;
17614;SDS011;8926;49.720;6.576;2023-04-15T00:23:01;1.70;;;1.60;;
17614;SDS011;8926;49.720;6.576;2023-04-15T00:25:27;1.40;;;1.17;;
17614;SDS011;8926;49.720;6.576;2023-04-15T00:27:53;1.43;;;1.33;;
17614;SDS011;8926;49.720;6.576;2023-04-15T00:30:18;1.53;;;1.43;;
17614;SDS011;8926;49.720;6.576;2023-04-15T00:32:47;2.07;;;1.40;;
17614;SDS011;8926;49.720;6.576;2023-04-15T00:35:13;1.57;;;1.43;;
17614;SDS011;8926;49.720;6.576;2023-04-15T00:37:38;1.50;;;1.40;;
17614;SDS011;8926;49.720;6.576;2023-04-15T00:40:04;1.63;;;1.53;;
17614;SDS011;8926;49.720;6.576;2023-04-15T00:42:31;1.17;;;1.17;;
17614;SDS011;8926;49.720;6.576;2023-04-15T00:44:58;1.70;;;1.60;;
17614;SDS011;8926;49.720;6.576;2023-04-15T00:47:24;1.73;;;1.63;;
17614;SDS011;8926;49.720;6.576;2023-04-15T00:49:51;2.00;;;1.80;;
17614;SDS011;8926;49.720;6.576;2023-04-15T00:52:16;2.03;;;1.60;;
17614;SDS011;8926;49.720;6.576;2023-04-15T00:54:42;1.80;;;1.70;;
17614;SDS011;8926;49.720;6.576;2023-04-15T00:57:07;1.97;;;1.70;;
17614;SDS011;8926;49.720;6.576;2023-04-15T00:59:32;1.73;;;1.37;;
17614;SDS011;8926;49.720;6.576;2023-04-15T01:01:59;1.17;;;1.10;;
17614;SDS011;8926;49.720;6.576;2023-04-15T01:04:25;1.33;;;1.20;;
17614;SDS011;8926;49.720;6.576;2023-04-15T01:06:50;1.57;;;1.47;;
17614;SDS011;8926;49.720;6.576;2023-04-15T01:09:16;1.40;;;1.30;;
17614;SDS011;8926;49.720;6.576;2023-04-15T01:11:41;1.23;;;1.00;;
17614;SDS011;8926;49.720;6.576;2023-04-15T01:14:07;1.30;;;1.20;;
17614;SDS011;8926;49.720;6.576;2023-04-15T01:16:34;1.07;;;1.07;;
17614;SDS011;8926;49.720;6.576;2023-04-15T01:19:00;1.17;;;1.07;;
17614;SDS011;8926;49.720;6.576;2023-04-15T01:21:26;1.30;;;1.20;;
17614;SDS011;8926;49.720;6.576;2023-04-15T01:23:52;1.47;;;1.37;;
17614;SDS011;8926;49.720;6.576;2023-04-15T01:26:19;1.30;;;1.20;;
17614;SDS011;8926;49.720;6.576;2023-04-15T01:28:46;1.40;;;1.30;;
17614;SDS011;8926;49.720;6.576;2023-04-15T01:31:12;1.10;;;1.10;;
17614;SDS011;8926;49.720;6.576;2023-04-15T01:33:39;1.20;;;1.20;;
17614;SDS011;8926;49.720;6.576;2023-04-15T01:36:06;1.40;;;1.30;;
17614;SDS011;8926;49.720;6.576;2023-04-15T01:38:34;1.47;;;1.37;;
17614;SDS011;8926;49.720;6.576;2023-04-15T01:40:59;1.83;;;1.50;;
17614;SDS011;8926;49.720;6.576;2023-04-15T01:43:25;1.33;;;1.23;;
17614;SDS011;8926;49.720;6.576;2023-04-15T01:45:52;2.10;;;1.53;;
17614;SDS011;8926;49.720;6.576;2023-04-15T01:48:17;2.30;;;1.73;;
17614;SDS011;8926;49.720;6.576;2023-04-15T01:50:43;1.50;;;1.40;;
17614;SDS011;8926;49.720;6.576;2023-04-15T01:53:09;1.53;;;1.43;;
17614;SDS011;8926;49.720;6.576;2023-04-15T01:55:34;2.27;;;1.50;;
17614;SDS011;8926;49.720;6.576;2023-04-15T01:58:00;2.10;;;1.57;;
17614;SDS011;8926;49.720;6.576;2023-04-15T02:00:26;1.53;;;1.43;;
17614;SDS011;8926;49.720;6.576;2023-04-15T02:02:53;1.40;;;1.30;;
17614;SDS011;8926;49.720;6.576;2023-04-15T02:05:18;1.97;;;1.77;;
17614;SDS011;8926;49.720;6.576;2023-04-15T02:07:44;1.73;;;1.63;;
17614;SDS011;8926;49.720;6.576;2023-04-15T02:10:09;1.90;;;1.80;;
17614;SDS011;8926;49.720;6.576;2023-04-15T02:12:37;1.70;;;1.60;;
17614;SDS011;8926;49.720;6.576;2023-04-15T02:15:03;1.80;;;1.50;;
17614;SDS011;8926;49.720;6.576;2023-04-15T02:17:28;2.57;;;1.80;;
17614;SDS011;8926;49.720;6.576;2023-04-15T02:19:54;1.67;;;1.50;;
17614;SDS011;8926;49.720;6.576;2023-04-15T02:22:20;1.90;;;1.70;;
17614;SDS011;8926;49.720;6.576;2023-04-15T02:24:46;1.57;;;1.47;;
17614;SDS011;8926;49.720;6.576;2023-04-15T02:27:14;1.70;;;1.60;;
17614;SDS011;8926;49.720;6.576;2023-04-15T02:29:42;2.20;;;1.80;;
17614;SDS011;8926;49.720;6.576;2023-04-15T02:32:08;1.80;;;1.70;;
17614;SDS011;8926;49.720;6.576;2023-04-15T02:34:33;2.10;;;1.40;;
17614;SDS011;8926;49.720;6.576;2023-04-15T02:36:58;1.60;;;1.50;;
17614;SDS011;8926;49.720;6.576;2023-04-15T02:39:24;2.30;;;1.63;;
17614;SDS011;8926;49.720;6.576;2023-04-15T02:41:49;1.70;;;1.33;;
17614;SDS011;8926;49.720;6.576;2023-04-15T02:44:17;1.83;;;1.73;;
17614;SDS011;8926;49.720;6.576;2023-04-15T02:46:44;2.43;;;2.17;;
17614;SDS011;8926;49.720;6.576;2023-04-15T02:49:14;1.60;;;1.50;;
17614;SDS011;8926;49.720;6.576;2023-04-15T02:51:40;1.80;;;1.70;;
17614;SDS011;8926;49.720;6.576;2023-04-15T02:54:05;1.83;;;1.70;;
17614;SDS011;8926;49.720;6.576;2023-04-15T02:56:31;1.57;;;1.47;;
17614;SDS011;8926;49.720;6.576;2023-04-15T02:58:57;2.17;;;1.97;;
17614;SDS011;8926;49.720;6.576;2023-04-15T03:01:22;1.60;;;1.50;;
17614;SDS011;8926;49.720;6.576;2023-04-15T03:03:47;1.87;;;1.57;;
17614;SDS011;8926;49.720;6.576;2023-04-15T03:06:13;1.50;;;1.40;;
17614;SDS011;8926;49.720;6.576;2023-04-15T03:08:38;1.70;;;1.60;;
17614;SDS011;8926;49.720;6.576;2023-04-15T03:11:03;1.20;;;1.13;;
17614;SDS011;8926;49.720;6.576;2023-04-15T03:13:29;2.13;;;1.60;;
17614;SDS011;8926;49.720;6.576;2023-04-15T03:15:55;1.50;;;1.40;;
17614;SDS011;8926;49.720;6.576;2023-04-15T03:18:20;2.10;;;1.80;;
17614;SDS011;8926;49.720;6.576;2023-04-15T03:20:46;2.57;;;1.73;;
17614;SDS011;8926;49.720;6.576;2023-04-15T03:23:11;1.93;;;1.77;;
17614;SDS011;8926;49.720;6.576;2023-04-15T03:25:36;2.20;;;1.47;;
17614;SDS011;8926;49.720;6.576;2023-04-15T03:28:02;1.50;;;1.40;;
17614;SDS011;8926;49.720;6.576;2023-04-15T03:30:27;1.70;;;1.60;;
17614;SDS011;8926;49.720;6.576;2023-04-15T03:32:53;1.70;;;1.47;;
17614;SDS011;8926;49.720;6.576;2023-04-15T03:35:18;2.17;;;1.80;;
17614;SDS011;8926;49.720;6.576;2023-04-15T03:37:43;1.37;;;1.27;;
17614;SDS011;8926;49.720;6.576;2023-04-15T03:40:09;1.33;;;1.23;;
17614;SDS011;8926;49.720;6.576;2023-04-15T03:42:34;1.40;;;1.30;;
17614;SDS011;8926;49.720;6.576;2023-04-15T03:45:00;1.70;;;1.40;;
17614;SDS011;8926;49.720;6.576;2023-04-15T03:47:25;1.83;;;1.50;;
17614;SDS011;8926;49.720;6.576;2023-04-15T03:49:50;2.83;;;1.70;;
17614;SDS011;8926;49.720;6.576;2023-04-15T03:52:16;1.57;;;1.47;;
17614;SDS011;8926;49.720;6.576;2023-04-15T03:54:41;1.83;;;1.60;;
17614;SDS011;8926;49.720;6.576;2023-04-15T03:57:06;1.40;;;1.30;;
17614;SDS011;8926;49.720;6.576;2023-04-15T03:59:32;2.60;;;1.60;;
17614;SDS011;8926;49.720;6.576;2023-04-15T04:01:57;1.70;;;1.57;;
17614;SDS011;8926;49.720;6.576;2023-04-15T04:04:22;1.60;;;1.50;;
17614;SDS011;8926;49.720;6.576;2023-04-15T04:06:47;1.90;;;1.80;;
17614;SDS011;8926;49.720;6.576;2023-04-15T04:09:13;2.60;;;1.50;;
17614;SDS011;8926;49.720;6.576;2023-04-15T04:11:38;2.93;;;1.70;;
17614;SDS011;8926;49.720;6.576;2023-04-15T04:14:03;3.10;;;2.13;;
17614;SDS011;8926;49.720;6.576;2023-04-15T04:16:29;2.27;;;1.80;;
17614;SDS011;8926;49.720;6.576;2023-04-15T04:18:54;2.37;;;1.70;;
17614;SDS011;8926;49.720;6.576;2023-04-15T04:21:19;1.60;;;1.50;;
17614;SDS011;8926;49.720;6.576;2023-04-15T04:23:45;1.53;;;1.43;;
17614;SDS011;8926;49.720;6.576;2023-04-15T04:26:10;2.00;;;1.30;;
17614;SDS011;8926;49.720;6.576;2023-04-15T04:28:36;2.03;;;1.50;;
17614;SDS011;8926;49.720;6.576;2023-04-15T04:31:03;1.50;;;1.40;;
17614;SDS011;8926;49.720;6.576;2023-04-15T04:33:28;1.80;;;1.50;;
17614;SDS011;8926;49.720;6.576;2023-04-15T04:35:54;2.10;;;1.40;;
17614;SDS011;8926;49.720;6.576;2023-04-15T04:38:19;1.50;;;1.30;;
17614;SDS011;8926;49.720;6.576;2023-04-15T04:40:45;1.90;;;1.60;;
17614;SDS011;8926;49.720;6.576;2023-04-15T04:43:10;2.13;;;2.03;;
17614;SDS011;8926;49.720;6.576;2023-04-15T04:45:36;2.50;;;2.00;;
17614;SDS011;8926;49.720;6.576;2023-04-15T04:48:01;2.10;;;1.90;;
17614;SDS011;8926;49.720;6.576;2023-04-15T04:50:30;1.43;;;1.33;;
17614;SDS011;8926;49.720;6.576;2023-04-15T04:52:56;1.93;;;1.57;;
17614;SDS011;8926;49.720;6.576;2023-04-15T04:55:21;1.53;;;1.43;;
17614;SDS011;8926;49.720;6.576;2023-04-15T04:57:46;1.87;;;1.47;;
17614;SDS011;8926;49.720;6.576;2023-04-15T05:00:12;1.83;;;1.43;;
17614;SDS011;8926;49.720;6.576;2023-04-15T05:02:38;1.70;;;1.60;;
17614;SDS011;8926;49.720;6.576;2023-04-15T05:05:03;1.40;;;1.30;;
17614;SDS011;8926;49.720;6.576;2023-04-15T05:07:29;1.60;;;1.10;;
17614;SDS011;8926;49.720;6.576;2023-04-15T05:09:54;1.30;;;0.90;;
17614;SDS011;8926;49.720;6.576;2023-04-15T05:12:19;1.40;;;1.20;;
17614;SDS011;8926;49.720;6.576;2023-04-15T05:14:45;1.67;;;1.47;;
17614;SDS011;8926;49.720;6.576;2023-04-15T05:17:10;1.40;;;1.30;;
17614;SDS011;8926;49.720;6.576;2023-04-15T05:19:36;1.33;;;1.10;;
17614;SDS011;8926;49.720;6.576;2023-04-15T05:22:01;1.37;;;1.27;;
17614;SDS011;8926;49.720;6.576;2023-04-15T05:24:27;1.73;;;1.40;;
17614;SDS011;8926;49.720;6.576;2023-04-15T05:26:52;1.30;;;1.20;;
17614;SDS011;8926;49.720;6.576;2023-04-15T05:29:17;1.30;;;1.27;;
17614;SDS011;8926;49.720;6.576;2023-04-15T05:31:43;1.37;;;1.10;;
17614;SDS011;8926;49.720;6.576;2023-04-15T05:34:08;1.90;;;1.60;;
17614;SDS011;8926;49.720;6.576;2023-04-15T05:36:35;1.73;;;1.50;;
17614;SDS011;8926;49.720;6.576;2023-04-15T05:39:01;1.20;;;1.10;;
17614;SDS011;8926;49.720;6.576;2023-04-15T05:41:26;1.13;;;1.13;;
17614;SDS011;8926;49.720;6.576;2023-04-15T05:43:51;1.67;;;1.27;;
17614;SDS011;8926;49.720;6.576;2023-04-15T05:46:17;1.47;;;1.37;;
17614;SDS011;8926;49.720;6.576;2023-04-15T05:48:42;1.30;;;1.20;;
17614;SDS011;8926;49.720;6.576;2023-04-15T05:51:07;1.43;;;1.33;;
17614;SDS011;8926;49.720;6.576;2023-04-15T05:53:33;1.70;;;1.27;;
17614;SDS011;8926;49.720;6.576;2023-04-15T05:55:58;1.77;;;1.37;;
17614;SDS011;8926;49.720;6.576;2023-04-15T05:58:24;1.63;;;1.50;;
17614;SDS011;8926;49.720;6.576;2023-04-15T06:00:49;1.43;;;1.33;;
17614;SDS011;8926;49.720;6.576;2023-04-15T06:03:15;1.53;;;1.23;;
17614;SDS011;8926;49.720;6.576;2023-04-15T06:05:40;1.50;;;1.40;;
17614;SDS011;8926;49.720;6.576;2023-04-15T06:08:06;1.63;;;1.33;;
17614;SDS011;8926;49.720;6.576;2023-04-15T06:10:32;2.10;;;1.10;;
17614;SDS011;8926;49.720;6.576;2023-04-15T06:13:01;1.23;;;1.13;;
17614;SDS011;8926;49.720;6.576;2023-04-15T06:15:29;1.77;;;1.40;;
17614;SDS011;8926;49.720;6.576;2023-04-15T06:17:54;1.40;;;1.30;;
17614;SDS011;8926;49.720;6.576;2023-04-15T06:20:20;1.43;;;1.33;;
17614;SDS011;8926;49.720;6.576;2023-04-15T06:22:45;1.40;;;1.30;;
17614;SDS011;8926;49.720;6.576;2023-04-15T06:25:10;1.50;;;1.40;;
17614;SDS011;8926;49.720;6.576;2023-04-15T06:27:36;1.40;;;1.30;;
17614;SDS011;8926;49.720;6.576;2023-04-15T06:30:01;1.47;;;1.20;;
17614;SDS011;8926;49.720;6.576;2023-04-15T06:32:27;1.60;;;1.50;;
17614;SDS011;8926;49.720;6.576;2023-04-15T06:34:52;1.53;;;1.33;;
17614;SDS011;8926;49.720;6.576;2023-04-15T06:37:18;1.27;;;1.17;;
17614;SDS011;8926;49.720;6.576;2023-04-15T06:39:43;1.60;;;1.33;;
17614;SDS011;8926;49.720;6.576;2023-04-15T06:42:08;1.73;;;1.40;;
17614;SDS011;8926;49.720;6.576;2023-04-15T06:44:35;3.43;;;1.40;;
17614;SDS011;8926;49.720;6.576;2023-04-15T06:47:01;1.43;;;1.33;;
17614;SDS011;8926;49.720;6.576;2023-04-15T06:49:26;1.50;;;1.40;;
17614;SDS011;8926;49.720;6.576;2023-04-15T06:51:52;1.73;;;1.40;;
17614;SDS011;8926;49.720;6.576;2023-04-15T06:54:17;2.00;;;1.63;;
17614;SDS011;8926;49.720;6.576;2023-04-15T06:56:42;1.50;;;1.27;;
17614;SDS011;8926;49.720;6.576;2023-04-15T06:59:07;1.60;;;1.50;;
17614;SDS011;8926;49.720;6.576;2023-04-15T07:01:33;1.60;;;1.30;;
17614;SDS011;8926;49.720;6.576;2023-04-15T07:03:59;2.30;;;1.63;;
17614;SDS011;8926;49.720;6.576;2023-04-15T07:06:24;1.50;;;1.40;;
17614;SDS011;8926;49.720;6.576;2023-04-15T07:08:49;1.13;;;1.07;;
17614;SDS011;8926;49.720;6.576;2023-04-15T07:11:15;1.93;;;1.57;;
17614;SDS011;8926;49.720;6.576;2023-04-15T07:13:41;1.40;;;1.30;;
17614;SDS011;8926;49.720;6.576;2023-04-15T07:16:06;1.20;;;1.10;;
17614;SDS011;8926;49.720;6.576;2023-04-15T07:18:32;1.63;;;1.47;;
17614;SDS011;8926;49.720;6.576;2023-04-15T07:20:58;1.43;;;1.10;;
17614;SDS011;8926;49.720;6.576;2023-04-15T07:23:23;1.40;;;1.30;;
17614;SDS011;8926;49.720;6.576;2023-04-15T07:25:49;1.73;;;1.20;;
17614;SDS011;8926;49.720;6.576;2023-04-15T07:28:14;2.17;;;1.60;;
17614;SDS011;8926;49.720;6.576;2023-04-15T07:30:40;1.40;;;1.30;;
17614;SDS011;8926;49.720;6.576;2023-04-15T07:33:05;1.47;;;1.37;;
17614;SDS011;8926;49.720;6.576;2023-04-15T07:35:31;1.63;;;1.43;;
17614;SDS011;8926;49.720;6.576;2023-04-15T07:37:57;1.63;;;1.27;;
17614;SDS011;8926;49.720;6.576;2023-04-15T07:40:22;1.83;;;1.40;;
17614;SDS011;8926;49.720;6.576;2023-04-15T07:42:48;1.47;;;1.37;;
17614;SDS011;8926;49.720;6.576;2023-04-15T07:45:13;1.67;;;1.43;;
17614;SDS011;8926;49.720;6.576;2023-04-15T07:47:40;1.90;;;1.50;;
17614;SDS011;8926;49.720;6.576;2023-04-15T07:50:06;2.10;;;1.60;;
17614;SDS011;8926;49.720;6.576;2023-04-15T07:52:34;2.03;;;1.87;;
17614;SDS011;8926;49.720;6.576;2023-04-15T07:55:04;2.67;;;1.93;;
17614;SDS011;8926;49.720;6.576;2023-04-15T07:57:31;2.80;;;2.30;;
17614;SDS011;8926;49.720;6.576;2023-04-15T07:59:56;2.30;;;2.10;;
17614;SDS011;8926;49.720;6.576;2023-04-15T08:02:21;1.87;;;1.63;;
17614;SDS011;8926;49.720;6.576;2023-04-15T08:04:47;1.53;;;1.43;;
17614;SDS011;8926;49.720;6.576;2023-04-15T08:07:12;1.60;;;1.50;;
17614;SDS011;8926;49.720;6.576;2023-04-15T08:09:37;1.80;;;1.70;;
17614;SDS011;8926;49.720;6.576;2023-04-15T08:12:03;1.93;;;1.73;;
17614;SDS011;8926;49.720;6.576;2023-04-15T08:14:28;1.90;;;1.80;;
17614;SDS011;8926;49.720;6.576;2023-04-15T08:16:54;2.17;;;1.43;;
17614;SDS011;8926;49.720;6.576;2023-04-15T08:19:19;1.80;;;1.47;;
17614;SDS011;8926;49.720;6.576;2023-04-15T08:21:45;1.70;;;1.43;;
17614;SDS011;8926;49.720;6.576;2023-04-15T08:24:10;1.70;;;1.43;;
17614;SDS011;8926;49.720;6.576;2023-04-15T08:26:36;1.87;;;1.50;;
17614;SDS011;8926;49.720;6.576;2023-04-15T08:29:02;1.70;;;1.60;;
17614;SDS011;8926;49.720;6.576;2023-04-15T08:31:27;2.10;;;1.83;;
17614;SDS011;8926;49.720;6.576;2023-04-15T08:33:54;2.17;;;1.40;;
17614;SDS011;8926;49.720;6.576;2023-04-15T08:36:21;2.87;;;2.07;;
17614;SDS011;8926;49.720;6.576;2023-04-15T08:38:47;2.63;;;1.87;;
17614;SDS011;8926;49.720;6.576;2023-04-15T08:41:20;1.90;;;1.43;;
17614;SDS011;8926;49.720;6.576;2023-04-15T08:43:51;2.30;;;1.40;;
17614;SDS011;8926;49.720;6.576;2023-04-15T08:46:26;1.50;;;1.30;;
17614;SDS011;8926;49.720;6.576;2023-04-15T08:48:51;2.00;;;1.40;;
17614;SDS011;8926;49.720;6.576;2023-04-15T08:51:20;1.67;;;1.57;;
17614;SDS011;8926;49.720;6.576;2023-04-15T08:53:46;2.30;;;1.57;;
17614;SDS011;8926;49.720;6.576;2023-04-15T08:56:11;1.77;;;1.60;;
17614;SDS011;8926;49.720;6.576;2023-04-15T08:58:39;2.70;;;1.50;;
17614;SDS011;8926;49.720;6.576;2023-04-15T09:01:05;2.37;;;1.87;;
17614;SDS011;8926;49.720;6.576;2023-04-15T09:03:31;1.67;;;1.37;;
17614;SDS011;8926;49.720;6.576;2023-04-15T09:05:57;1.97;;;1.27;;
17614;SDS011;8926;49.720;6.576;2023-04-15T09:08:23;1.70;;;1.30;;
17614;SDS011;8926;49.720;6.576;2023-04-15T09:10:48;2.30;;;1.53;;
17614;SDS011;8926;49.720;6.576;2023-04-15T09:13:14;2.37;;;1.20;;
17614;SDS011;8926;49.720;6.576;2023-04-15T09:15:39;1.23;;;1.13;;
17614;SDS011;8926;49.720;6.576;2023-04-15T09:18:05;3.53;;;1.40;;
17614;SDS011;8926;49.720;6.576;2023-04-15T09:20:37;1.27;;;1.17;;
17614;SDS011;8926;49.720;6.576;2023-04-15T09:23:12;2.00;;;1.33;;
17614;SDS011;8926;49.720;6.576;2023-04-15T09:25:38;0.87;;;0.87;;
17614;SDS011;8926;49.720;6.576;2023-04-15T09:28:06;1.40;;;1.20;;
17614;SDS011;8926;49.720;6.576;2023-04-15T09:30:32;2.53;;;1.60;;
17614;SDS011;8926;49.720;6.576;2023-04-15T09:32:58;3.17;;;1.63;;
17614;SDS011;8926;49.720;6.576;2023-04-15T09:35:26;1.20;;;1.10;;
17614;SDS011;8926;49.720;6.576;2023-04-15T09:37:53;3.20;;;1.47;;
17614;SDS011;8926;49.720;6.576;2023-04-15T09:40:30;2.60;;;1.17;;
17614;SDS011;8926;49.720;6.576;2023-04-15T09:42:57;2.30;;;1.50;;
17614;SDS011;8926;49.720;6.576;2023-04-15T09:45:23;1.80;;;1.00;;
17614;SDS011;8926;49.720;6.576;2023-04-15T09:47:49;2.80;;;2.30;;
17614;SDS011;8926;49.720;6.576;2023-04-15T09:50:17;1.80;;;0.90;;
17614;SDS011;8926;49.720;6.576;2023-04-15T09:52:43;3.63;;;1.30;;
17614;SDS011;8926;49.720;6.576;2023-04-15T09:55:10;1.97;;;1.40;;
17614;SDS011;8926;49.720;6.576;2023-04-15T09:57:37;1.70;;;0.90;;
17614;SDS011;8926;49.720;6.576;2023-04-15T10:00:04;2.37;;;1.17;;
17614;SDS011;8926;49.720;6.576;2023-04-15T10:02:30;2.37;;;1.07;;
17614;SDS011;8926;49.720;6.576;2023-04-15T10:04:56;1.70;;;1.13;;
17614;SDS011;8926;49.720;6.576;2023-04-15T10:07:22;1.77;;;1.30;;
17614;SDS011;8926;49.720;6.576;2023-04-15T10:09:47;2.73;;;1.93;;
17614;SDS011;8926;49.720;6.576;2023-04-15T10:12:14;3.60;;;3.10;;
17614;SDS011;8926;49.720;6.576;2023-04-15T10:14:41;2.23;;;1.40;;
17614;SDS011;8926;49.720;6.576;2023-04-15T10:17:10;1.47;;;1.20;;
17614;SDS011;8926;49.720;6.576;2023-04-15T10:19:37;1.40;;;0.80;;
17614;SDS011;8926;49.720;6.576;2023-04-15T10:22:02;1.63;;;0.80;;
17614;SDS011;8926;49.720;6.576;2023-04-15T10:24:29;1.23;;;0.77;;
17614;SDS011;8926;49.720;6.576;2023-04-15T10:29:27;1.47;;;1.00;;
17614;SDS011;8926;49.720;6.576;2023-04-15T10:31:56;1.00;;;0.77;;
17614;SDS011;8926;49.720;6.576;2023-04-15T10:34:23;1.13;;;0.90;;
17614;SDS011;8926;49.720;6.576;2023-04-15T10:36:49;0.87;;;0.70;;
17614;SDS011;8926;49.720;6.576;2023-04-15T10:42:10;1.23;;;0.83;;
17614;SDS011;8926;49.720;6.576;2023-04-15T10:44:58;1.00;;;0.80;;
17614;SDS011;8926;49.720;6.576;2023-04-15T10:47:24;1.23;;;0.90;;
17614;SDS011;8926;49.720;6.576;2023-04-15T10:49:50;1.10;;;0.70;;
17614;SDS011;8926;49.720;6.576;2023-04-15T10:52:21;1.67;;;0.80;;
17614;SDS011;8926;49.720;6.576;2023-04-15T10:54:48;0.70;;;0.70;;
17614;SDS011;8926;49.720;6.576;2023-04-15T10:57:15;2.27;;;1.23;;
17614;SDS011;8926;49.720;6.576;2023-04-15T10:59:58;1.53;;;0.60;;
17614;SDS011;8926;49.720;6.576;2023-04-15T11:05:09;0.57;;;0.50;;
17614;SDS011;8926;49.720;6.576;2023-04-15T11:07:36;0.60;;;0.50;;
17614;SDS011;8926;49.720;6.576;2023-04-15T11:12:38;1.00;;;0.80;;
17614;SDS011;8926;49.720;6.576;2023-04-15T11:17:55;3.20;;;1.07;;
17614;SDS011;8926;49.720;6.576;2023-04-15T11:20:21;1.73;;;1.10;;
17614;SDS011;8926;49.720;6.576;2023-04-15T11:22:50;0.80;;;0.70;;
17614;SDS011;8926;49.720;6.576;2023-04-15T11:25:26;0.87;;;0.80;;
17614;SDS011;8926;49.720;6.576;2023-04-15T11:27:53;1.17;;;0.73;;
17614;SDS011;8926;49.720;6.576;2023-04-15T11:30:20;2.10;;;1.10;;
17614;SDS011;8926;49.720;6.576;2023-04-15T11:32:47;1.50;;;1.03;;
17614;SDS011;8926;49.720;6.576;2023-04-15T11:35:13;1.93;;;1.00;;
17614;SDS011;8926;49.720;6.576;2023-04-15T11:37:39;2.60;;;1.00;;
17614;SDS011;8926;49.720;6.576;2023-04-15T11:40:06;1.47;;;1.10;;
17614;SDS011;8926;49.720;6.576;2023-04-15T11:42:39;1.30;;;1.10;;
17614;SDS011;8926;49.720;6.576;2023-04-15T11:45:05;1.57;;;1.20;;
17614;SDS011;8926;49.720;6.576;2023-04-15T11:47:38;1.13;;;0.90;;
17614;SDS011;8926;49.720;6.576;2023-04-15T11:52:55;1.37;;;1.10;;
17614;SDS011;8926;49.720;6.576;2023-04-15T11:55:25;1.90;;;0.93;;
17614;SDS011;8926;49.720;6.576;2023-04-15T11:58:24;1.00;;;0.90;;
17614;SDS011;8926;49.720;6.576;2023-04-15T12:00:51;1.50;;;1.03;;
17614;SDS011;8926;49.720;6.576;2023-04-15T12:03:27;1.57;;;1.10;;
17614;SDS011;8926;49.720;6.576;2023-04-15T12:11:17;1.57;;;0.90;;
17614;SDS011;8926;49.720;6.576;2023-04-15T12:13:46;0.90;;;0.90;;
17614;SDS011;8926;49.720;6.576;2023-04-15T12:16:16;1.27;;;0.80;;
17614;SDS011;8926;49.720;6.576;2023-04-15T12:18:49;1.03;;;0.93;;
17614;SDS011;8926;49.720;6.576;2023-04-15T12:21:19;1.20;;;0.97;;
17614;SDS011;8926;49.720;6.576;2023-04-15T12:23:49;1.27;;;0.80;;
17614;SDS011;8926;49.720;6.576;2023-04-15T12:26:16;1.43;;;1.20;;
17614;SDS011;8926;49.720;6.576;2023-04-15T12:28:42;1.13;;;0.70;;
17614;SDS011;8926;49.720;6.576;2023-04-15T12:31:08;2.33;;;1.13;;
17614;SDS011;8926;49.720;6.576;2023-04-15T12:33:34;1.30;;;1.20;;
17614;SDS011;8926;49.720;6.576;2023-04-15T12:36:00;1.80;;;1.13;;
17614;SDS011;8926;49.720;6.576;2023-04-15T12:38:25;1.20;;;1.10;;
17614;SDS011;8926;49.720;6.576;2023-04-15T12:40:50;1.20;;;1.10;;
17614;SDS011;8926;49.720;6.576;2023-04-15T12:43:16;1.57;;;1.33;;
17614;SDS011;8926;49.720;6.576;2023-04-15T12:45:41;1.33;;;1.13;;
17614;SDS011;8926;49.720;6.576;2023-04-15T12:48:07;1.10;;;1.03;;
17614;SDS011;8926;49.720;6.576;2023-04-15T12:50:33;2.10;;;1.20;;
17614;SDS011;8926;49.720;6.576;2023-04-15T12:52:59;1.33;;;1.23;;
17614;SDS011;8926;49.720;6.576;2023-04-15T12:55:24;2.10;;;1.77;;
17614;SDS011;8926;49.720;6.576;2023-04-15T12:57:49;3.47;;;1.40;;
17614;SDS011;8926;49.720;6.576;2023-04-15T13:00:15;0.90;;;0.90;;
17614;SDS011;8926;49.720;6.576;2023-04-15T13:02:42;1.00;;;1.00;;
17614;SDS011;8926;49.720;6.576;2023-04-15T13:05:08;1.00;;;0.83;;
17614;SDS011;8926;49.720;6.576;2023-04-15T13:07:33;1.93;;;1.20;;
17614;SDS011;8926;49.720;6.576;2023-04-15T13:09:59;1.53;;;1.20;;
17614;SDS011;8926;49.720;6.576;2023-04-15T13:12:25;0.93;;;0.90;;
17614;SDS011;8926;49.720;6.576;2023-04-15T13:14:54;0.87;;;0.87;;
17614;SDS011;8926;49.720;6.576;2023-04-15T13:17:19;1.73;;;0.90;;
17614;SDS011;8926;49.720;6.576;2023-04-15T13:19:45;1.20;;;1.13;;
17614;SDS011;8926;49.720;6.576;2023-04-15T13:22:11;1.73;;;1.27;;
17614;SDS011;8926;49.720;6.576;2023-04-15T13:24:36;1.10;;;1.10;;
17614;SDS011;8926;49.720;6.576;2023-04-15T13:27:17;1.03;;;0.90;;
17614;SDS011;8926;49.720;6.576;2023-04-15T13:29:42;1.10;;;1.00;;
17614;SDS011;8926;49.720;6.576;2023-04-15T13:32:07;0.97;;;0.97;;
17614;SDS011;8926;49.720;6.576;2023-04-15T13:34:33;1.43;;;0.80;;
17614;SDS011;8926;49.720;6.576;2023-04-15T13:36:58;0.70;;;0.70;;
17614;SDS011;8926;49.720;6.576;2023-04-15T13:39:30;1.23;;;0.80;;
17614;SDS011;8926;49.720;6.576;2023-04-15T13:41:56;0.50;;;0.50;;
17614;SDS011;8926;49.720;6.576;2023-04-15T13:44:21;0.70;;;0.70;;
17614;SDS011;8926;49.720;6.576;2023-04-15T13:46:46;0.60;;;0.60;;
17614;SDS011;8926;49.720;6.576;2023-04-15T13:49:12;1.07;;;0.90;;
17614;SDS011;8926;49.720;6.576;2023-04-15T13:51:37;0.57;;;0.57;;
17614;SDS011;8926;49.720;6.576;2023-04-15T13:54:02;0.67;;;0.67;;
17614;SDS011;8926;49.720;6.576;2023-04-15T13:56:28;0.70;;;0.70;;
17614;SDS011;8926;49.720;6.576;2023-04-15T13:58:54;0.70;;;0.70;;
17614;SDS011;8926;49.720;6.576;2023-04-15T14:01:22;1.00;;;0.90;;
17614;SDS011;8926;49.720;6.576;2023-04-15T14:03:48;0.70;;;0.70;;
17614;SDS011;8926;49.720;6.576;2023-04-15T14:06:13;0.57;;;0.50;;
17614;SDS011;8926;49.720;6.576;2023-04-15T14:08:39;0.47;;;0.47;;
17614;SDS011;8926;49.720;6.576;2023-04-15T14:11:05;1.17;;;1.07;;
17614;SDS011;8926;49.720;6.576;2023-04-15T14:13:30;1.03;;;0.93;;
17614;SDS011;8926;49.720;6.576;2023-04-15T14:15:55;1.17;;;1.07;;
17614;SDS011;8926;49.720;6.576;2023-04-15T14:18:21;1.03;;;1.03;;
17614;SDS011;8926;49.720;6.576;2023-04-15T14:20:46;1.77;;;1.50;;
17614;SDS011;8926;49.720;6.576;2023-04-15T14:23:12;1.30;;;1.20;;
17614;SDS011;8926;49.720;6.576;2023-04-15T14:25:37;1.00;;;0.90;;
17614;SDS011;8926;49.720;6.576;2023-04-15T14:28:05;0.87;;;0.83;;
17614;SDS011;8926;49.720;6.576;2023-04-15T14:30:30;1.17;;;1.00;;
17614;SDS011;8926;49.720;6.576;2023-04-15T14:32:55;1.10;;;1.10;;
17614;SDS011;8926;49.720;6.576;2023-04-15T14:35:21;0.80;;;0.80;;
17614;SDS011;8926;49.720;6.576;2023-04-15T14:37:48;0.70;;;0.70;;
17614;SDS011;8926;49.720;6.576;2023-04-15T14:40:13;0.80;;;0.80;;
17614;SDS011;8926;49.720;6.576;2023-04-15T14:42:39;1.37;;;1.30;;
17614;SDS011;8926;49.720;6.576;2023-04-15T14:45:04;1.23;;;1.10;;
17614;SDS011;8926;49.720;6.576;2023-04-15T14:47:30;1.73;;;1.20;;
17614;SDS011;8926;49.720;6.576;2023-04-15T14:49:55;1.03;;;1.03;;
17614;SDS011;8926;49.720;6.576;2023-04-15T14:52:20;0.70;;;0.70;;
17614;SDS011;8926;49.720;6.576;2023-04-15T14:54:46;0.70;;;0.70;;
17614;SDS011;8926;49.720;6.576;2023-04-15T14:57:11;1.00;;;1.00;;
17614;SDS011;8926;49.720;6.576;2023-04-15T14:59:36;0.97;;;0.90;;
17614;SDS011;8926;49.720;6.576;2023-04-15T15:02:02;1.03;;;0.80;;
17614;SDS011;8926;49.720;6.576;2023-04-15T15:04:27;0.87;;;0.87;;
17614;SDS011;8926;49.720;6.576;2023-04-15T15:06:53;0.50;;;0.50;;
17614;SDS011;8926;49.720;6.576;2023-04-15T15:09:18;0.63;;;0.63;;
17614;SDS011;8926;49.720;6.576;2023-04-15T15:11:46;0.87;;;0.80;;
17614;SDS011;8926;49.720;6.576;2023-04-15T15:14:17;0.60;;;0.60;;
17614;SDS011;8926;49.720;6.576;2023-04-15T15:16:42;1.00;;;0.60;;